WAT1714 PKMJ-PHNL
Flight info
| Callsign | WAT1714 |
|---|---|
| Flight time | N/A |
| Altitude | 39000 |
| Route | MAJ R584 MAZZA/N0485F410 R584 CHOKO OPACA4 |
| Aircraft | B788/H-L/3033 |
Departure
| Time | 2026-04-17 07:49 |
|---|---|
| Airport | Marshall Islands International Airport (PKMJ) |
Arrival
| Time | N/A |
|---|---|
| Airport | Daniel K. Inouye International Airport (PHNL) |
| Time | Latitude | Longitude | Altitude | Speed | Heading |
|---|---|---|---|---|---|
| 2026-04-17 07:48 | 7.06225 | 171.26220 | 19 ft | 2 kts | 76° |
| 2026-04-17 07:48 | 7.06311 | 171.26571 | 19 ft | 109 kts | 76° |
| 2026-04-17 07:48 | 7.06558 | 171.27573 | 407 ft | 159 kts | 76° |
| 2026-04-17 07:49 | 7.06924 | 171.28603 | 1692 ft | 158 kts | 68° |
| 2026-04-17 07:49 | 7.07578 | 171.29507 | 2621 ft | 163 kts | 57° |
| 2026-04-17 07:49 | 7.08247 | 171.30477 | 3416 ft | 176 kts | 57° |
| 2026-04-17 07:49 | 7.08957 | 171.31571 | 4097 ft | 196 kts | 58° |
| 2026-04-17 07:50 | 7.09683 | 171.32771 | 4831 ft | 211 kts | 60° |
| 2026-04-17 07:50 | 7.10463 | 171.34117 | 5538 ft | 229 kts | 61° |
| 2026-04-17 07:50 | 7.11280 | 171.35559 | 6263 ft | 244 kts | 61° |
| 2026-04-17 07:50 | 7.12137 | 171.37094 | 7035 ft | 257 kts | 62° |
| 2026-04-17 07:51 | 7.13029 | 171.38703 | 7883 ft | 266 kts | 62° |
| 2026-04-17 07:51 | 7.13941 | 171.40354 | 8783 ft | 273 kts | 62° |
| 2026-04-17 07:51 | 7.14875 | 171.42049 | 9708 ft | 279 kts | 62° |
| 2026-04-17 07:51 | 7.15824 | 171.43774 | 10564 ft | 287 kts | 62° |
| 2026-04-17 07:52 | 7.16821 | 171.45587 | 11133 ft | 306 kts | 62° |
| 2026-04-17 07:52 | 7.17875 | 171.47507 | 11718 ft | 323 kts | 62° |
| 2026-04-17 07:52 | 7.18999 | 171.49555 | 12192 ft | 343 kts | 62° |
| 2026-04-17 07:52 | 7.20170 | 171.51690 | 12613 ft | 363 kts | 62° |
| 2026-04-17 07:53 | 7.21445 | 171.54011 | 13042 ft | 383 kts | 62° |
| 2026-04-17 07:53 | 7.22745 | 171.56380 | 13475 ft | 401 kts | 62° |
| 2026-04-17 07:53 | 7.24137 | 171.58912 | 14032 ft | 414 kts | 61° |
| 2026-04-17 07:53 | 7.25521 | 171.61431 | 14712 ft | 422 kts | 61° |
| 2026-04-17 07:54 | 7.26979 | 171.64085 | 15438 ft | 429 kts | 61° |
| 2026-04-17 07:54 | 7.28431 | 171.66728 | 16179 ft | 435 kts | 62° |
| 2026-04-17 07:54 | 7.29885 | 171.69380 | 16919 ft | 439 kts | 62° |
| 2026-04-17 07:54 | 7.31366 | 171.72085 | 17660 ft | 443 kts | 62° |
| 2026-04-17 07:55 | 7.32882 | 171.74852 | 18384 ft | 447 kts | 62° |
| 2026-04-17 07:55 | 7.34375 | 171.77579 | 18991 ft | 453 kts | 61° |
| 2026-04-17 07:55 | 7.35902 | 171.80367 | 19587 ft | 458 kts | 61° |
| 2026-04-17 07:55 | 7.37455 | 171.83200 | 20218 ft | 462 kts | 61° |
| 2026-04-17 07:56 | 7.39012 | 171.86040 | 20855 ft | 465 kts | 61° |
| 2026-04-17 07:56 | 7.40578 | 171.88898 | 21477 ft | 468 kts | 61° |
| 2026-04-17 07:56 | 7.42158 | 171.91784 | 22064 ft | 471 kts | 61° |
| 2026-04-17 07:56 | 7.43747 | 171.94687 | 22590 ft | 475 kts | 61° |
| 2026-04-17 07:57 | 7.45355 | 171.97624 | 23086 ft | 479 kts | 61° |
| 2026-04-17 07:57 | 7.46966 | 172.00568 | 23568 ft | 483 kts | 61° |
| 2026-04-17 07:57 | 7.48591 | 172.03547 | 24071 ft | 486 kts | 60° |
| 2026-04-17 07:57 | 7.50227 | 172.06545 | 24490 ft | 491 kts | 59° |
| 2026-04-17 07:58 | 7.51889 | 172.09581 | 24853 ft | 496 kts | 59° |
| 2026-04-17 07:58 | 7.53571 | 172.12633 | 25409 ft | 496 kts | 60° |
| 2026-04-17 07:58 | 7.55245 | 172.15689 | 25945 ft | 498 kts | 60° |
| 2026-04-17 07:58 | 7.56914 | 172.18746 | 26401 ft | 500 kts | 60° |
| 2026-04-17 07:59 | 7.58599 | 172.21834 | 26805 ft | 504 kts | 60° |
| 2026-04-17 07:59 | 7.60300 | 172.24950 | 27181 ft | 508 kts | 60° |
| 2026-04-17 07:59 | 7.62011 | 172.28084 | 27609 ft | 512 kts | 60° |
| 2026-04-17 07:59 | 7.63734 | 172.31240 | 28065 ft | 515 kts | 60° |
| 2026-04-17 08:00 | 7.65468 | 172.34415 | 28538 ft | 518 kts | 60° |
| 2026-04-17 08:00 | 7.67213 | 172.37612 | 29013 ft | 522 kts | 60° |
| 2026-04-17 08:00 | 7.68962 | 172.40819 | 29506 ft | 524 kts | 60° |
| 2026-04-17 08:00 | 7.70725 | 172.44051 | 30066 ft | 525 kts | 60° |
| 2026-04-17 08:01 | 7.72488 | 172.47283 | 30630 ft | 526 kts | 60° |
| 2026-04-17 08:01 | 7.74248 | 172.50506 | 31202 ft | 525 kts | 59° |
| 2026-04-17 08:01 | 7.76015 | 172.53747 | 31774 ft | 525 kts | 59° |
| 2026-04-17 08:01 | 7.77756 | 172.56940 | 32322 ft | 525 kts | 59° |
| 2026-04-17 08:02 | 7.79513 | 172.60167 | 32907 ft | 524 kts | 59° |
| 2026-04-17 08:02 | 7.81266 | 172.63380 | 33482 ft | 524 kts | 59° |
| 2026-04-17 08:02 | 7.83022 | 172.66601 | 34055 ft | 523 kts | 59° |
| 2026-04-17 08:02 | 7.84772 | 172.69810 | 34626 ft | 522 kts | 59° |
| 2026-04-17 08:03 | 7.86513 | 172.73006 | 35182 ft | 521 kts | 59° |
| 2026-04-17 08:03 | 7.88263 | 172.76219 | 35742 ft | 519 kts | 60° |
| 2026-04-17 08:03 | 7.89997 | 172.79406 | 36278 ft | 518 kts | 60° |
| 2026-04-17 08:03 | 7.91708 | 172.82554 | 36770 ft | 518 kts | 59° |
| 2026-04-17 08:04 | 7.93463 | 172.85780 | 37255 ft | 517 kts | 59° |
| 2026-04-17 08:04 | 7.95188 | 172.88949 | 37751 ft | 516 kts | 60° |
| 2026-04-17 08:04 | 7.96917 | 172.92127 | 38244 ft | 515 kts | 60° |
| 2026-04-17 08:04 | 7.98637 | 172.95290 | 38633 ft | 514 kts | 60° |
| 2026-04-17 08:05 | 8.00302 | 172.98353 | 38824 ft | 511 kts | 60° |
| 2026-04-17 08:05 | 8.02057 | 173.01581 | 38911 ft | 509 kts | 60° |
| 2026-04-17 08:05 | 8.05410 | 173.07756 | 38921 ft | 502 kts | 60° |
| 2026-04-17 08:06 | 8.08757 | 173.13919 | 38934 ft | 500 kts | 60° |
| 2026-04-17 08:06 | 8.12105 | 173.20087 | 38938 ft | 503 kts | 60° |
| 2026-04-17 08:07 | 8.15471 | 173.26289 | 38924 ft | 502 kts | 60° |
| 2026-04-17 08:07 | 8.18834 | 173.32490 | 38938 ft | 507 kts | 60° |
| 2026-04-17 08:08 | 8.22227 | 173.38747 | 38935 ft | 509 kts | 60° |
| 2026-04-17 08:08 | 8.25624 | 173.45018 | 38928 ft | 507 kts | 60° |
| 2026-04-17 08:09 | 8.28978 | 173.51216 | 38941 ft | 504 kts | 59° |
| 2026-04-17 08:09 | 8.32333 | 173.57412 | 38927 ft | 502 kts | 59° |
| 2026-04-17 08:10 | 8.35687 | 173.63605 | 38940 ft | 504 kts | 59° |
| 2026-04-17 08:10 | 8.39052 | 173.69826 | 38932 ft | 504 kts | 59° |
| 2026-04-17 08:11 | 8.42409 | 173.76034 | 38931 ft | 503 kts | 59° |
| 2026-04-17 08:11 | 8.45770 | 173.82256 | 38940 ft | 508 kts | 59° |
| 2026-04-17 08:12 | 8.49155 | 173.88524 | 38931 ft | 508 kts | 59° |
| 2026-04-17 08:12 | 8.52525 | 173.94762 | 38921 ft | 502 kts | 59° |
| 2026-04-17 08:13 | 8.55879 | 174.00983 | 38937 ft | 507 kts | 59° |
| 2026-04-17 08:14 | 8.60953 | 174.10390 | 38928 ft | 507 kts | 59° |
| 2026-04-17 08:14 | 8.64320 | 174.16636 | 38935 ft | 506 kts | 59° |
| 2026-04-17 08:15 | 8.67678 | 174.22871 | 38937 ft | 507 kts | 59° |
| 2026-04-17 08:15 | 8.71045 | 174.29123 | 38925 ft | 507 kts | 59° |
| 2026-04-17 08:16 | 8.74428 | 174.35404 | 38941 ft | 510 kts | 60° |
| 2026-04-17 08:16 | 8.77821 | 174.41715 | 38933 ft | 510 kts | 59° |
| 2026-04-17 08:17 | 8.81185 | 174.47979 | 38926 ft | 503 kts | 59° |
| 2026-04-17 08:17 | 8.84519 | 174.54180 | 38940 ft | 503 kts | 59° |
| 2026-04-17 08:18 | 8.87868 | 174.60412 | 38934 ft | 505 kts | 59° |
| 2026-04-17 08:18 | 8.91225 | 174.66664 | 38928 ft | 504 kts | 59° |
| 2026-04-17 08:19 | 8.94571 | 174.72899 | 38940 ft | 504 kts | 59° |
| 2026-04-17 08:19 | 8.97918 | 174.79141 | 38929 ft | 505 kts | 59° |
| 2026-04-17 08:20 | 9.01272 | 174.85396 | 38935 ft | 506 kts | 59° |
| 2026-04-17 08:20 | 9.04624 | 174.91653 | 38937 ft | 506 kts | 59° |
| 2026-04-17 08:21 | 9.07956 | 174.97876 | 38927 ft | 506 kts | 59° |
| 2026-04-17 08:21 | 9.11305 | 175.04133 | 38939 ft | 506 kts | 59° |
| 2026-04-17 08:22 | 9.14656 | 175.10396 | 38932 ft | 506 kts | 59° |
| 2026-04-17 08:22 | 9.18003 | 175.16654 | 38930 ft | 505 kts | 59° |
| 2026-04-17 08:23 | 9.21356 | 175.22928 | 38941 ft | 506 kts | 59° |
| 2026-04-17 08:23 | 9.24700 | 175.29189 | 38929 ft | 505 kts | 59° |
| 2026-04-17 08:24 | 9.28027 | 175.35424 | 38935 ft | 502 kts | 59° |
| 2026-04-17 08:24 | 9.31349 | 175.41650 | 38939 ft | 502 kts | 59° |
| 2026-04-17 08:25 | 9.34649 | 175.47833 | 38928 ft | 503 kts | 59° |
| 2026-04-17 08:25 | 9.37970 | 175.54062 | 38937 ft | 502 kts | 59° |
| 2026-04-17 08:26 | 9.40750 | 175.59278 | 38938 ft | 502 kts | 59° |
| 2026-04-17 08:26 | 9.44043 | 175.65463 | 38927 ft | 502 kts | 59° |
| 2026-04-17 08:27 | 9.47358 | 175.71689 | 38939 ft | 502 kts | 59° |
| 2026-04-17 08:27 | 9.50676 | 175.77919 | 38937 ft | 502 kts | 60° |
| 2026-04-17 08:28 | 9.53965 | 175.84107 | 38921 ft | 499 kts | 60° |
| 2026-04-17 08:28 | 9.57298 | 175.90383 | 38943 ft | 509 kts | 60° |
| 2026-04-17 08:29 | 9.60652 | 175.96699 | 38930 ft | 508 kts | 60° |
| 2026-04-17 08:29 | 9.63995 | 176.02995 | 38932 ft | 507 kts | 60° |
| 2026-04-17 08:30 | 9.67313 | 176.09249 | 38940 ft | 507 kts | 60° |
| 2026-04-17 08:30 | 9.70660 | 176.15560 | 38927 ft | 508 kts | 60° |
| 2026-04-17 08:31 | 9.74001 | 176.21863 | 38937 ft | 507 kts | 60° |
| 2026-04-17 08:31 | 9.77336 | 176.28162 | 38938 ft | 506 kts | 60° |
| 2026-04-17 08:32 | 9.80625 | 176.34375 | 38926 ft | 498 kts | 60° |
| 2026-04-17 08:32 | 9.83885 | 176.40535 | 38936 ft | 496 kts | 60° |
| 2026-04-17 08:33 | 9.87159 | 176.46721 | 38939 ft | 499 kts | 60° |
| 2026-04-17 08:33 | 9.90441 | 176.52931 | 38926 ft | 498 kts | 60° |
| 2026-04-17 08:34 | 9.93694 | 176.59088 | 38939 ft | 498 kts | 60° |
| 2026-04-17 08:34 | 9.96969 | 176.65293 | 38933 ft | 498 kts | 60° |
| 2026-04-17 08:35 | 10.00238 | 176.71487 | 38930 ft | 498 kts | 60° |
| 2026-04-17 08:35 | 10.03505 | 176.77679 | 38941 ft | 498 kts | 60° |
| 2026-04-17 08:36 | 10.06786 | 176.83908 | 38928 ft | 505 kts | 59° |
| 2026-04-17 08:36 | 10.10103 | 176.90198 | 38937 ft | 505 kts | 59° |
| 2026-04-17 08:37 | 10.13408 | 176.96478 | 38933 ft | 504 kts | 59° |
| 2026-04-17 08:37 | 10.16714 | 177.02759 | 38931 ft | 504 kts | 59° |
| 2026-04-17 08:38 | 10.20016 | 177.09036 | 38940 ft | 504 kts | 59° |
| 2026-04-17 08:38 | 10.23320 | 177.15323 | 38928 ft | 504 kts | 59° |
| 2026-04-17 08:39 | 10.26617 | 177.21599 | 38937 ft | 504 kts | 59° |
| 2026-04-17 08:39 | 10.29869 | 177.27797 | 38931 ft | 497 kts | 59° |
| 2026-04-17 08:40 | 10.33132 | 177.34012 | 38934 ft | 501 kts | 59° |
| 2026-04-17 08:40 | 10.36410 | 177.40260 | 38939 ft | 501 kts | 59° |
| 2026-04-17 08:41 | 10.39686 | 177.46512 | 38926 ft | 500 kts | 59° |
| 2026-04-17 08:41 | 10.42953 | 177.52747 | 38939 ft | 500 kts | 59° |
| 2026-04-17 08:42 | 10.46225 | 177.58998 | 38933 ft | 501 kts | 59° |
| 2026-04-17 08:42 | 10.49475 | 177.65204 | 38932 ft | 500 kts | 61° |
| 2026-04-17 08:43 | 10.52751 | 177.71464 | 38938 ft | 498 kts | 60° |
| 2026-04-17 08:43 | 10.56006 | 177.77712 | 38930 ft | 501 kts | 59° |
| 2026-04-17 08:44 | 10.59257 | 177.83931 | 38933 ft | 501 kts | 59° |
| 2026-04-17 08:44 | 10.62526 | 177.90189 | 38939 ft | 501 kts | 59° |
| 2026-04-17 08:45 | 10.65793 | 177.96451 | 38927 ft | 501 kts | 59° |
| 2026-04-17 08:45 | 10.69065 | 178.02725 | 38938 ft | 501 kts | 59° |
| 2026-04-17 08:46 | 10.72317 | 178.08968 | 38934 ft | 501 kts | 59° |
| 2026-04-17 08:46 | 10.75584 | 178.15241 | 38929 ft | 501 kts | 59° |
| 2026-04-17 08:47 | 10.78839 | 178.21496 | 38940 ft | 500 kts | 59° |
| 2026-04-17 08:47 | 10.82091 | 178.27748 | 38928 ft | 500 kts | 59° |
| 2026-04-17 08:48 | 10.85342 | 178.34000 | 38936 ft | 501 kts | 59° |
| 2026-04-17 08:48 | 10.88607 | 178.40285 | 38937 ft | 501 kts | 59° |
| 2026-04-17 08:49 | 10.91861 | 178.46554 | 38927 ft | 501 kts | 59° |
| 2026-04-17 08:49 | 10.95112 | 178.52818 | 38940 ft | 501 kts | 59° |
| 2026-04-17 08:50 | 10.98368 | 178.59098 | 38931 ft | 501 kts | 59° |
| 2026-04-17 08:50 | 11.01619 | 178.65372 | 38931 ft | 501 kts | 59° |
| 2026-04-17 08:51 | 11.04848 | 178.71607 | 38940 ft | 501 kts | 59° |
| 2026-04-17 08:51 | 11.08096 | 178.77883 | 38927 ft | 501 kts | 59° |
| 2026-04-17 08:52 | 11.11358 | 178.84185 | 38938 ft | 504 kts | 59° |
| 2026-04-17 08:52 | 11.14619 | 178.90496 | 38934 ft | 504 kts | 59° |
| 2026-04-17 08:53 | 11.17877 | 178.96803 | 38929 ft | 503 kts | 59° |
| 2026-04-17 08:53 | 11.21137 | 179.03116 | 38941 ft | 503 kts | 59° |
| 2026-04-17 08:54 | 11.24391 | 179.09423 | 38929 ft | 503 kts | 59° |
| 2026-04-17 08:54 | 11.27628 | 179.15700 | 38933 ft | 503 kts | 59° |
| 2026-04-17 08:55 | 11.30902 | 179.22050 | 38942 ft | 507 kts | 59° |
| 2026-04-17 08:55 | 11.34178 | 179.28414 | 38927 ft | 506 kts | 60° |
| 2026-04-17 08:56 | 11.37463 | 179.34793 | 38938 ft | 509 kts | 60° |
| 2026-04-17 08:56 | 11.40748 | 179.41184 | 38933 ft | 509 kts | 60° |
| 2026-04-17 08:57 | 11.44034 | 179.47579 | 38929 ft | 508 kts | 60° |
| 2026-04-17 08:57 | 11.47297 | 179.53923 | 38947 ft | 506 kts | 61° |
| 2026-04-17 08:58 | 11.50531 | 179.60221 | 38924 ft | 497 kts | 62° |
| 2026-04-17 08:58 | 11.53756 | 179.66527 | 38937 ft | 506 kts | 60° |
| 2026-04-17 08:59 | 11.57044 | 179.72934 | 38937 ft | 510 kts | 60° |
| 2026-04-17 08:59 | 11.60326 | 179.79338 | 38925 ft | 509 kts | 60° |
| 2026-04-17 09:00 | 11.63614 | 179.85757 | 38940 ft | 510 kts | 60° |
| 2026-04-17 09:00 | 11.66898 | 179.92179 | 38930 ft | 511 kts | 60° |
| 2026-04-17 09:01 | 11.70168 | 179.98556 | 38933 ft | 510 kts | 60° |
| 2026-04-17 09:01 | 11.73493 | -179.95061 | 38939 ft | 510 kts | 59° |
| 2026-04-17 09:02 | 11.76841 | -179.88673 | 38927 ft | 510 kts | 59° |
| 2026-04-17 09:02 | 11.80198 | -179.82275 | 38938 ft | 513 kts | 59° |
| 2026-04-17 09:03 | 11.83567 | -179.75845 | 38934 ft | 513 kts | 59° |
| 2026-04-17 09:03 | 11.86928 | -179.69428 | 38929 ft | 512 kts | 59° |
| 2026-04-17 09:04 | 11.90286 | -179.63011 | 38940 ft | 512 kts | 59° |
| 2026-04-17 09:04 | 11.93622 | -179.56630 | 38929 ft | 513 kts | 59° |
| 2026-04-17 09:05 | 11.96978 | -179.50210 | 38934 ft | 512 kts | 59° |
| 2026-04-17 09:05 | 12.00330 | -179.43790 | 38937 ft | 512 kts | 59° |
| 2026-04-17 09:06 | 12.03685 | -179.37363 | 38927 ft | 513 kts | 59° |
| 2026-04-17 09:06 | 12.07042 | -179.30927 | 38938 ft | 512 kts | 59° |
| 2026-04-17 09:07 | 12.10389 | -179.24504 | 38933 ft | 513 kts | 59° |
| 2026-04-17 09:07 | 12.13740 | -179.18070 | 38929 ft | 512 kts | 59° |
| 2026-04-17 09:08 | 12.17087 | -179.11641 | 38940 ft | 512 kts | 59° |
| 2026-04-17 09:08 | 12.20436 | -179.05201 | 38929 ft | 513 kts | 59° |
| 2026-04-17 09:09 | 12.23763 | -178.98799 | 38934 ft | 512 kts | 59° |
| 2026-04-17 09:09 | 12.27102 | -178.92369 | 38938 ft | 512 kts | 59° |
| 2026-04-17 09:10 | 12.32099 | -178.82740 | 38933 ft | 510 kts | 59° |
| 2026-04-17 09:10 | 12.35428 | -178.76319 | 38940 ft | 511 kts | 59° |
| 2026-04-17 09:11 | 12.38760 | -178.69887 | 38927 ft | 511 kts | 59° |
| 2026-04-17 09:11 | 12.42080 | -178.63476 | 38937 ft | 511 kts | 59° |
| 2026-04-17 09:12 | 12.45402 | -178.57055 | 38936 ft | 511 kts | 59° |
| 2026-04-17 09:12 | 12.48722 | -178.50636 | 38919 ft | 507 kts | 59° |
| 2026-04-17 09:13 | 12.52011 | -178.44264 | 38938 ft | 511 kts | 59° |
| 2026-04-17 09:13 | 12.55334 | -178.37829 | 38934 ft | 512 kts | 59° |
| 2026-04-17 09:14 | 12.58098 | -178.32472 | 38927 ft | 511 kts | 59° |
| 2026-04-17 09:14 | 12.61956 | -178.24989 | 38941 ft | 511 kts | 59° |
| 2026-04-17 09:15 | 12.64735 | -178.19595 | 38932 ft | 511 kts | 59° |
| 2026-04-17 09:15 | 12.68589 | -178.12109 | 38933 ft | 511 kts | 59° |
| 2026-04-17 09:16 | 12.71346 | -178.06750 | 38940 ft | 511 kts | 59° |
| 2026-04-17 09:16 | 12.74664 | -178.00295 | 38928 ft | 511 kts | 59° |
| 2026-04-17 09:17 | 12.77968 | -177.93865 | 38936 ft | 511 kts | 59° |
| 2026-04-17 09:17 | 12.81279 | -177.87413 | 38937 ft | 511 kts | 59° |
| 2026-04-17 09:18 | 12.84591 | -177.80958 | 38927 ft | 511 kts | 59° |
| 2026-04-17 09:18 | 12.87895 | -177.74510 | 38940 ft | 511 kts | 59° |
| 2026-04-17 09:19 | 12.91200 | -177.68057 | 38932 ft | 511 kts | 59° |
| 2026-04-17 09:19 | 12.94508 | -177.61594 | 38931 ft | 511 kts | 60° |
| 2026-04-17 09:20 | 12.97808 | -177.55142 | 38940 ft | 511 kts | 60° |
| 2026-04-17 09:20 | 13.01105 | -177.48691 | 38928 ft | 511 kts | 60° |
| 2026-04-17 09:21 | 13.04382 | -177.42275 | 38936 ft | 511 kts | 60° |
| 2026-04-17 09:21 | 13.07679 | -177.35813 | 38936 ft | 511 kts | 60° |
| 2026-04-17 09:22 | 13.10980 | -177.29337 | 38927 ft | 511 kts | 60° |
| 2026-04-17 09:22 | 13.14273 | -177.22876 | 38940 ft | 511 kts | 60° |
| 2026-04-17 09:23 | 13.17566 | -177.16407 | 38931 ft | 511 kts | 60° |
| 2026-04-17 09:23 | 13.20855 | -177.09943 | 38932 ft | 511 kts | 60° |
| 2026-04-17 09:24 | 13.24144 | -177.03472 | 38940 ft | 511 kts | 60° |
| 2026-04-17 09:24 | 13.27434 | -176.96996 | 38928 ft | 511 kts | 60° |
| 2026-04-17 09:25 | 13.30699 | -176.90563 | 38937 ft | 511 kts | 60° |
| 2026-04-17 09:25 | 13.33980 | -176.84092 | 38936 ft | 511 kts | 60° |
| 2026-04-17 09:26 | 13.37261 | -176.77619 | 38928 ft | 511 kts | 60° |
| 2026-04-17 09:26 | 13.40547 | -176.71131 | 38940 ft | 511 kts | 60° |
| 2026-04-17 09:27 | 13.43824 | -176.64653 | 38931 ft | 511 kts | 60° |
| 2026-04-17 09:27 | 13.47102 | -176.58187 | 38937 ft | 506 kts | 62° |
| 2026-04-17 09:28 | 13.50291 | -176.51844 | 38933 ft | 502 kts | 59° |
| 2026-04-17 09:28 | 13.53531 | -176.45434 | 38941 ft | 508 kts | 59° |
| 2026-04-17 09:29 | 13.56784 | -176.38993 | 38927 ft | 506 kts | 59° |
| 2026-04-17 09:29 | 13.60029 | -176.32554 | 38937 ft | 506 kts | 59° |
| 2026-04-17 09:30 | 13.63272 | -176.26118 | 38936 ft | 507 kts | 59° |
| 2026-04-17 09:30 | 13.66508 | -176.19689 | 38928 ft | 506 kts | 59° |
| 2026-04-17 09:31 | 13.69724 | -176.13289 | 38940 ft | 506 kts | 59° |
| 2026-04-17 09:31 | 13.72970 | -176.06831 | 38931 ft | 507 kts | 59° |
| 2026-04-17 09:32 | 13.76190 | -176.00407 | 38930 ft | 503 kts | 59° |
| 2026-04-17 09:32 | 13.79379 | -175.94055 | 38941 ft | 504 kts | 59° |
| 2026-04-17 09:33 | 13.82597 | -175.87642 | 38929 ft | 504 kts | 59° |
| 2026-04-17 09:33 | 13.85809 | -175.81228 | 38933 ft | 504 kts | 59° |
| 2026-04-17 09:34 | 13.89022 | -175.74807 | 38939 ft | 504 kts | 59° |
| 2026-04-17 09:34 | 13.92227 | -175.68400 | 38927 ft | 504 kts | 59° |
| 2026-04-17 09:35 | 13.95434 | -175.61980 | 38938 ft | 504 kts | 59° |
| 2026-04-17 09:35 | 13.98624 | -175.55593 | 38934 ft | 504 kts | 59° |
| 2026-04-17 09:36 | 14.01828 | -175.49170 | 38928 ft | 504 kts | 59° |
| 2026-04-17 09:36 | 14.05036 | -175.42733 | 38941 ft | 504 kts | 59° |
| 2026-04-17 09:37 | 14.08234 | -175.36313 | 38929 ft | 504 kts | 59° |
| 2026-04-17 09:37 | 14.11433 | -175.29885 | 38934 ft | 504 kts | 59° |
| 2026-04-17 09:38 | 14.14632 | -175.23451 | 38939 ft | 504 kts | 59° |
| 2026-04-17 09:38 | 14.17810 | -175.17055 | 38927 ft | 504 kts | 59° |
| 2026-04-17 09:39 | 14.21003 | -175.10622 | 38938 ft | 504 kts | 59° |
| 2026-04-17 09:39 | 14.24197 | -175.04185 | 38934 ft | 504 kts | 59° |
| 2026-04-17 09:40 | 14.27385 | -174.97752 | 38929 ft | 504 kts | 59° |
| 2026-04-17 09:40 | 14.30577 | -174.91306 | 38941 ft | 504 kts | 59° |
| 2026-04-17 09:41 | 14.33745 | -174.84905 | 38929 ft | 504 kts | 59° |
| 2026-04-17 09:41 | 14.36932 | -174.78457 | 38934 ft | 504 kts | 59° |
| 2026-04-17 09:42 | 14.40125 | -174.71994 | 38938 ft | 504 kts | 59° |
| 2026-04-17 09:42 | 14.43311 | -174.65569 | 38928 ft | 503 kts | 62° |
| 2026-04-17 09:43 | 14.46436 | -174.59210 | 38927 ft | 498 kts | 59° |
| 2026-04-17 09:43 | 14.49608 | -174.52738 | 38935 ft | 511 kts | 58° |
| 2026-04-17 09:44 | 14.52886 | -174.46116 | 38945 ft | 524 kts | 58° |
| 2026-04-17 09:44 | 14.56231 | -174.39326 | 38936 ft | 535 kts | 59° |
| 2026-04-17 09:45 | 14.59599 | -174.32465 | 38926 ft | 535 kts | 59° |
| 2026-04-17 09:45 | 14.62957 | -174.25617 | 38938 ft | 534 kts | 59° |
| 2026-04-17 09:46 | 14.66304 | -174.18804 | 38934 ft | 539 kts | 59° |
| 2026-04-17 09:46 | 14.69697 | -174.11878 | 38927 ft | 540 kts | 59° |
| 2026-04-17 09:47 | 14.73079 | -174.04966 | 38938 ft | 538 kts | 59° |
| 2026-04-17 09:47 | 14.76460 | -173.98054 | 38934 ft | 539 kts | 59° |
| 2026-04-17 09:48 | 14.79836 | -173.91138 | 38928 ft | 537 kts | 59° |
| 2026-04-17 09:48 | 14.83195 | -173.84264 | 38940 ft | 536 kts | 59° |
| 2026-04-17 09:49 | 14.86561 | -173.77371 | 38931 ft | 538 kts | 59° |
| 2026-04-17 09:49 | 14.89930 | -173.70465 | 38929 ft | 541 kts | 59° |
| 2026-04-17 09:50 | 14.93327 | -173.63491 | 38939 ft | 542 kts | 59° |
| 2026-04-17 09:50 | 14.96713 | -173.56525 | 38927 ft | 541 kts | 59° |
| 2026-04-17 09:51 | 15.00068 | -173.49621 | 38937 ft | 540 kts | 59° |
| 2026-04-17 09:51 | 15.03446 | -173.42665 | 38934 ft | 542 kts | 59° |
| 2026-04-17 09:52 | 15.06827 | -173.35699 | 38928 ft | 542 kts | 59° |
| 2026-04-17 09:52 | 15.10199 | -173.28742 | 38940 ft | 541 kts | 59° |
| 2026-04-17 09:53 | 15.13574 | -173.21772 | 38932 ft | 542 kts | 60° |
| 2026-04-17 09:53 | 15.16969 | -173.14767 | 38934 ft | 545 kts | 60° |
| 2026-04-17 09:54 | 15.20362 | -173.07739 | 38938 ft | 545 kts | 60° |
| 2026-04-17 09:54 | 15.23731 | -173.00758 | 38927 ft | 545 kts | 60° |
| 2026-04-17 09:55 | 15.27110 | -172.93751 | 38938 ft | 544 kts | 60° |
| 2026-04-17 09:55 | 15.30498 | -172.86720 | 38935 ft | 545 kts | 60° |
| 2026-04-17 09:56 | 15.33884 | -172.79689 | 38928 ft | 544 kts | 60° |
| 2026-04-17 09:56 | 15.37259 | -172.72673 | 38941 ft | 545 kts | 60° |
| 2026-04-17 09:57 | 15.40652 | -172.65616 | 38932 ft | 549 kts | 60° |
| 2026-04-17 09:57 | 15.43967 | -172.58726 | 40042 ft | 504 kts | 63° |
| 2026-04-17 09:58 | 15.45499 | -172.55525 | 40928 ft | 492 kts | 62° |
| 2026-04-17 09:58 | 15.47028 | -172.52319 | 40897 ft | 499 kts | 60° |
| 2026-04-17 09:58 | 15.50157 | -172.45786 | 40765 ft | 513 kts | 60° |
| 2026-04-17 09:59 | 15.52837 | -172.40203 | 40651 ft | 525 kts | 60° |
| 2026-04-17 09:59 | 15.56135 | -172.33317 | 40511 ft | 540 kts | 60° |
| 2026-04-17 10:00 | 15.60048 | -172.25127 | 40348 ft | 547 kts | 61° |
| 2026-04-17 10:00 | 15.62875 | -172.19201 | 40214 ft | 546 kts | 61° |
| 2026-04-17 10:01 | 15.66221 | -172.12181 | 40062 ft | 546 kts | 62° |
| 2026-04-17 10:01 | 15.69587 | -172.05112 | 39912 ft | 547 kts | 62° |
| 2026-04-17 10:02 | 15.72959 | -171.98026 | 39761 ft | 547 kts | 62° |
| 2026-04-17 10:02 | 15.76332 | -171.90932 | 39609 ft | 547 kts | 62° |
| 2026-04-17 10:03 | 15.79676 | -171.83894 | 39278 ft | 550 kts | 62° |
| 2026-04-17 10:03 | 15.81368 | -171.80329 | 39070 ft | 548 kts | 62° |
| 2026-04-17 10:03 | 15.83051 | -171.76780 | 38956 ft | 545 kts | 62° |
| 2026-04-17 10:04 | 15.86395 | -171.69726 | 38940 ft | 547 kts | 62° |
| 2026-04-17 10:04 | 15.89791 | -171.62565 | 38934 ft | 553 kts | 62° |
| 2026-04-17 10:05 | 15.93130 | -171.55408 | 38929 ft | 553 kts | 63° |
| 2026-04-17 10:05 | 15.96427 | -171.48182 | 38941 ft | 553 kts | 63° |
| 2026-04-17 10:06 | 15.99698 | -171.40938 | 38930 ft | 553 kts | 63° |
| 2026-04-17 10:06 | 16.02952 | -171.33707 | 38933 ft | 553 kts | 63° |
| 2026-04-17 10:07 | 16.06211 | -171.26462 | 38941 ft | 553 kts | 63° |
| 2026-04-17 10:07 | 16.09450 | -171.19254 | 38927 ft | 553 kts | 64° |
| 2026-04-17 10:08 | 16.12713 | -171.11987 | 38938 ft | 554 kts | 64° |
| 2026-04-17 10:08 | 16.15973 | -171.04717 | 38933 ft | 553 kts | 64° |
| 2026-04-17 10:09 | 16.19221 | -170.97465 | 38929 ft | 553 kts | 64° |
| 2026-04-17 10:09 | 16.22472 | -170.90200 | 38941 ft | 554 kts | 64° |
| 2026-04-17 10:10 | 16.25699 | -170.82980 | 38928 ft | 553 kts | 64° |
| 2026-04-17 10:11 | 16.30561 | -170.72088 | 38940 ft | 552 kts | 64° |
| 2026-04-17 10:11 | 16.33803 | -170.64817 | 38931 ft | 555 kts | 64° |
| 2026-04-17 10:12 | 16.37051 | -170.57522 | 38932 ft | 555 kts | 64° |
| 2026-04-17 10:12 | 16.40290 | -170.50237 | 38939 ft | 555 kts | 64° |
| 2026-04-17 10:12 | 16.41899 | -170.46617 | 38939 ft | 542 kts | 64° |
| 2026-04-17 10:13 | 16.43463 | -170.43093 | 38888 ft | 531 kts | 64° |
| 2026-04-17 10:13 | 16.46575 | -170.36083 | 38929 ft | 543 kts | 64° |